createdAt,value
2018-04-16T00:03:39.804Z,65.30
2018-04-16T00:05:40.970Z,68.50
2018-04-16T00:12:51.554Z,77.28
2018-04-16T00:15:00.788Z,75.30
2018-04-16T00:24:36.421Z,66.90
2018-04-16T00:27:03.994Z,69.40
2018-04-16T00:29:22.100Z,67.60
2018-04-16T00:45:27.820Z,65.57
2018-04-16T00:47:39.203Z,70.43
2018-04-16T00:49:51.619Z,64.53
2018-04-16T00:52:00.039Z,77.80
2018-04-16T00:54:24.456Z,74.67
2018-04-16T00:56:31.889Z,73.43
2018-04-16T01:01:20.279Z,72.90
2018-04-16T01:03:31.522Z,76.13
2018-04-16T01:08:21.908Z,74.87
2018-04-16T01:13:20.660Z,77.73
2018-04-16T01:15:28.219Z,68.70
2018-04-16T01:17:36.371Z,69.83
2018-04-16T01:42:57.551Z,67.00
2018-04-16T01:45:24.890Z,63.63
2018-04-16T01:47:53.916Z,86.20
2018-04-16T01:50:08.959Z,70.20
2018-04-16T01:52:17.115Z,62.10
2018-04-16T01:54:30.548Z,60.00
2018-04-16T01:56:54.604Z,62.33
2018-04-16T02:01:30.707Z,50.27
2018-04-16T02:03:56.524Z,41.83
2018-04-16T02:06:05.302Z,48.30
2018-04-16T02:10:47.793Z,67.93
2018-04-16T02:12:57.050Z,66.73
2018-04-16T02:17:30.986Z,65.93
2018-04-16T02:19:56.690Z,63.83
2018-04-16T02:22:17.948Z,72.13
2018-04-16T02:24:30.339Z,74.40
2018-04-16T02:29:01.957Z,86.70
2018-04-16T02:35:48.377Z,44.27
2018-04-16T02:37:58.637Z,39.87
2018-04-16T02:40:16.914Z,42.00
2018-04-16T02:42:26.263Z,45.43
2018-04-16T02:44:34.169Z,46.87
2018-04-16T02:47:04.566Z,55.87
2018-04-16T02:49:18.449Z,61.93
2018-04-16T02:56:38.120Z,66.23
2018-04-16T03:01:00.711Z,59.33
2018-04-16T03:05:35.245Z,66.47
2018-04-16T06:26:41.959Z,88.87
2018-04-16T06:28:43.242Z,105.97
2018-04-16T06:30:44.554Z,108.00
2018-04-16T06:32:46.168Z,118.40
2018-04-16T06:34:47.690Z,139.40
2018-04-16T06:36:49.283Z,107.80
2018-04-16T06:38:50.772Z,97.37
2018-04-16T06:40:52.095Z,119.97
2018-04-16T06:42:53.458Z,122.00
2018-04-16T06:44:54.936Z,122.73
2018-04-16T06:46:56.182Z,99.83
2018-04-16T06:48:57.255Z,107.57
2018-04-16T06:50:58.649Z,112.00
2018-04-16T06:52:59.906Z,115.47
2018-04-16T06:55:01.268Z,110.70
2018-04-16T06:57:02.518Z,103.00
2018-04-16T06:59:04.034Z,114.40
2018-04-16T07:01:05.210Z,112.77
2018-04-16T07:03:06.476Z,109.27
2018-04-16T07:05:08.371Z,105.80
2018-04-16T07:07:09.698Z,112.67
2018-04-16T07:09:11.058Z,122.03
2018-04-16T07:11:12.366Z,104.57
2018-04-16T07:13:13.837Z,111.07
2018-04-16T07:15:15.132Z,107.43
2018-04-16T07:17:16.507Z,103.73
2018-04-16T07:19:17.932Z,106.80
2018-04-16T07:21:19.210Z,113.30
2018-04-16T07:23:20.449Z,104.10
2018-04-16T07:25:21.635Z,138.03
2018-04-16T07:27:22.974Z,106.57
2018-04-16T07:29:24.306Z,113.40
2018-04-16T07:31:25.426Z,110.87
2018-04-16T07:33:26.496Z,91.57
2018-04-16T07:35:27.554Z,89.97
2018-04-16T07:37:29.201Z,89.90
2018-04-16T07:39:31.041Z,106.53
2018-04-16T07:41:32.356Z,84.57
2018-04-16T07:43:33.787Z,87.87
2018-04-16T07:45:35.261Z,87.93
2018-04-16T07:47:36.395Z,88.77
2018-04-16T07:49:37.740Z,88.93
2018-04-16T07:51:39.089Z,81.17
2018-04-16T07:53:41.957Z,81.27
2018-04-16T07:55:43.050Z,78.33
2018-04-16T07:57:45.319Z,85.40
2018-04-16T07:59:47.568Z,76.20
2018-04-16T08:01:49.596Z,84.67
2018-04-16T08:03:50.697Z,80.30
2018-04-16T08:05:52.482Z,73.50
2018-04-16T08:07:53.755Z,70.07
2018-04-16T08:09:54.983Z,67.53
2018-04-16T08:11:56.282Z,71.63
2018-04-16T08:13:57.594Z,63.70
2018-04-16T08:15:58.852Z,60.80
2018-04-16T08:18:03.029Z,63.30
2018-04-16T08:20:04.364Z,63.00
2018-04-16T08:22:05.934Z,56.73
2018-04-16T08:24:07.112Z,57.67
2018-04-16T08:26:08.221Z,59.47
2018-04-16T08:28:09.378Z,59.92
2018-04-16T08:30:10.452Z,52.93
2018-04-16T08:32:11.900Z,57.93
2018-04-16T08:34:13.419Z,52.93
2018-04-16T08:36:14.932Z,56.70
2018-04-16T08:38:17.568Z,54.63
2018-04-16T08:40:21.516Z,53.10
2018-04-16T08:42:23.392Z,45.40
2018-04-16T08:44:24.406Z,50.07
2018-04-16T08:46:25.800Z,54.37
2018-04-16T08:48:27.779Z,46.23
2018-04-16T08:50:29.136Z,49.73
2018-04-16T08:52:31.814Z,45.07
2018-04-16T08:54:44.120Z,48.70
2018-04-16T08:56:45.751Z,42.73
2018-04-16T08:58:47.068Z,47.93
2018-04-16T09:00:48.310Z,44.87
2018-04-16T09:02:49.450Z,43.78
2018-04-16T09:04:50.612Z,45.27
2018-04-16T09:06:52.118Z,44.87
2018-04-16T09:08:53.517Z,47.17
2018-04-16T09:10:55.181Z,45.27
2018-04-16T09:12:56.835Z,42.70
2018-04-16T09:14:58.199Z,39.10
2018-04-16T09:16:59.651Z,38.90
2018-04-16T09:19:01.088Z,36.27
2018-04-16T09:21:03.335Z,35.70
2018-04-16T09:23:04.431Z,44.10
2018-04-16T09:25:05.639Z,48.27
2018-04-16T09:27:06.753Z,38.73
2018-04-16T09:29:08.045Z,37.93
2018-04-16T09:31:09.508Z,42.37
2018-04-16T09:33:10.809Z,35.30
2018-04-16T09:35:12.371Z,38.57
2018-04-16T09:37:13.728Z,35.43
2018-04-16T09:39:15.094Z,37.80
2018-04-16T09:41:16.390Z,36.87
2018-04-16T09:43:17.704Z,33.60
2018-04-16T09:45:18.850Z,41.77
2018-04-16T09:47:19.994Z,33.93
2018-04-16T09:49:21.032Z,36.40
2018-04-16T09:51:23.506Z,39.57
2018-04-16T09:53:24.836Z,36.13
2018-04-16T09:55:27.303Z,37.73
2018-04-16T09:57:28.660Z,37.57
2018-04-16T09:59:29.934Z,35.97
2018-04-16T10:01:37.206Z,36.10
2018-04-16T10:03:39.281Z,35.30
2018-04-16T10:05:40.930Z,35.33
2018-04-16T10:07:42.457Z,34.97
2018-04-16T10:09:43.925Z,34.67
2018-04-16T10:11:45.303Z,37.70
2018-04-16T10:13:47.545Z,30.73
2018-04-16T10:15:48.892Z,33.00
2018-04-16T10:17:50.042Z,31.60
2018-04-16T10:19:51.242Z,30.87
2018-04-16T10:21:53.422Z,32.33
2018-04-16T10:23:54.635Z,28.40
2018-04-16T10:25:55.769Z,29.63
2018-04-16T10:27:57.037Z,33.60
2018-04-16T10:29:58.249Z,28.07
2018-04-16T10:31:59.735Z,26.30
2018-04-16T10:34:01.046Z,24.17
2018-04-16T10:36:02.190Z,26.00
2018-04-16T10:38:03.324Z,26.93
2018-04-16T10:40:04.475Z,25.50
2018-04-16T10:42:05.586Z,24.97
2018-04-16T10:44:06.757Z,26.60
2018-04-16T10:46:07.931Z,22.97
2018-04-16T10:48:09.042Z,25.50
2018-04-16T10:50:10.238Z,18.80
2018-04-16T10:52:12.674Z,16.20
2018-04-16T10:54:14.022Z,20.30
2018-04-16T10:56:15.432Z,18.40
2018-04-16T10:58:16.500Z,14.37
2018-04-16T11:00:17.576Z,18.43
2018-04-16T11:02:18.747Z,18.40
2018-04-16T11:04:20.107Z,20.50
2018-04-16T11:06:21.380Z,19.00
2018-04-16T11:08:22.692Z,17.30
2018-04-16T11:10:23.999Z,16.70
2018-04-16T11:12:25.183Z,18.93
2018-04-16T11:14:26.331Z,19.77
2018-04-16T11:16:27.734Z,14.30
2018-04-16T11:18:28.924Z,18.05
2018-04-16T11:20:30.133Z,16.73
2018-04-16T11:22:31.924Z,13.93
2018-04-16T11:24:33.043Z,15.63
2018-04-16T11:26:34.243Z,15.80
2018-04-16T11:28:35.495Z,17.77
2018-04-16T11:30:36.645Z,14.27
2018-04-16T11:32:37.914Z,13.77
2018-04-16T11:34:39.169Z,15.97
2018-04-16T11:36:40.404Z,17.40
2018-04-16T11:38:41.651Z,16.37
2018-04-16T11:40:42.802Z,14.83
2018-04-16T11:42:43.992Z,19.57
2018-04-16T11:44:45.158Z,21.10
2018-04-16T11:46:46.227Z,18.90
2018-04-16T11:48:47.346Z,22.70
2018-04-16T11:50:48.352Z,16.83
2018-04-16T11:52:50.515Z,17.60
2018-04-16T11:54:51.685Z,17.20
2018-04-16T11:56:52.815Z,18.10
2018-04-16T11:58:54.139Z,15.90
2018-04-16T12:00:55.390Z,16.83
2018-04-16T12:02:56.527Z,18.47
2018-04-16T12:04:57.711Z,21.87
2018-04-16T12:06:58.909Z,19.37
2018-04-16T12:09:00.073Z,18.40
2018-04-16T12:11:01.286Z,15.03
2018-04-16T12:13:02.386Z,18.00
2018-04-16T12:15:03.806Z,14.90
2018-04-16T12:17:05.164Z,20.90
2018-04-16T12:19:06.272Z,21.50
2018-04-16T12:21:07.308Z,18.20
2018-04-16T12:23:08.370Z,19.57
2018-04-16T12:25:09.672Z,24.97
2018-04-16T12:27:11.167Z,20.23
2018-04-16T12:29:13.149Z,21.17
2018-04-16T12:31:14.872Z,19.30
2018-04-16T12:33:17.107Z,19.33
2018-04-16T12:35:18.669Z,19.10
2018-04-16T12:37:22.028Z,18.97
2018-04-16T12:39:23.977Z,20.40
2018-04-16T12:41:26.124Z,17.70
2018-04-16T12:43:28.576Z,20.13
2018-04-16T12:45:30.568Z,26.23
2018-04-16T12:47:32.072Z,20.57
2018-04-16T12:49:33.392Z,21.03
2018-04-16T12:51:34.661Z,24.73
2018-04-16T12:53:35.765Z,20.67
2018-04-16T12:55:36.862Z,17.67
2018-04-16T12:57:37.900Z,21.53
2018-04-16T12:59:38.979Z,19.97
2018-04-16T13:01:40.137Z,20.37
2018-04-16T13:03:41.439Z,16.93
2018-04-16T13:05:42.669Z,18.10
2018-04-16T13:07:43.980Z,20.53
2018-04-16T13:09:45.298Z,20.17
2018-04-16T13:11:46.839Z,18.23
2018-04-16T13:13:48.086Z,16.63
2018-04-16T13:15:49.351Z,17.07
2018-04-16T13:17:50.490Z,19.83
2018-04-16T13:19:51.740Z,27.80
2018-04-16T13:21:52.812Z,18.80
2018-04-16T13:23:54.061Z,21.13
2018-04-16T13:25:55.138Z,16.77
2018-04-16T13:27:56.403Z,19.63
2018-04-16T13:29:57.597Z,16.70
2018-04-16T13:31:58.907Z,16.80
2018-04-16T13:34:01.046Z,18.60
2018-04-16T13:36:02.353Z,24.87
2018-04-16T13:38:03.774Z,22.17
2018-04-16T13:40:04.860Z,23.97
2018-04-16T13:42:05.990Z,32.60
2018-04-16T13:44:07.059Z,21.50
2018-04-16T13:46:08.160Z,23.23
2018-04-16T13:48:09.320Z,29.67
2018-04-16T13:50:12.023Z,25.87
2018-04-16T13:52:13.506Z,24.77
2018-04-16T13:54:14.934Z,25.27
2018-04-16T13:56:18.920Z,24.10
2018-04-16T13:58:22.026Z,20.80
2018-04-16T14:00:23.972Z,11.07
2018-04-16T14:02:26.005Z,13.80
2018-04-16T14:04:27.462Z,9.47
2018-04-16T14:06:30.860Z,17.57
2018-04-16T14:08:33.376Z,11.60
2018-04-16T14:10:34.626Z,10.87
2018-04-16T14:12:35.626Z,12.30
2018-04-16T14:14:36.660Z,9.83
2018-04-16T14:16:37.687Z,14.03
2018-04-16T14:18:39.033Z,13.63
2018-04-16T14:20:40.242Z,12.83
2018-04-16T14:22:41.694Z,21.60
2018-04-16T14:24:45.203Z,16.40
2018-04-16T14:26:47.059Z,11.20
2018-04-16T14:28:52.879Z,13.53
2018-04-16T14:30:58.669Z,15.00
2018-04-16T14:33:00.882Z,17.67
2018-04-16T14:35:04.164Z,14.90
2018-04-16T14:37:05.246Z,21.03
2018-04-16T14:39:06.254Z,17.93
2018-04-16T14:41:07.431Z,17.40
2018-04-16T14:43:08.454Z,19.90
2018-04-16T14:45:09.706Z,14.70
2018-04-16T14:47:15.332Z,14.30
2018-04-16T14:49:17.690Z,18.43
2018-04-16T14:51:21.418Z,15.63
2018-04-16T14:53:22.512Z,19.30
2018-04-16T14:55:25.025Z,12.77
2018-04-16T14:57:36.069Z,13.53
2018-04-16T14:59:37.107Z,13.63
2018-04-16T15:01:38.179Z,13.13
2018-04-16T15:03:39.999Z,10.70
2018-04-16T15:05:42.084Z,10.87
2018-04-16T15:07:43.632Z,7.50
2018-04-16T15:09:51.895Z,12.23
2018-04-16T15:11:52.988Z,14.53
2018-04-16T15:13:55.670Z,11.67
2018-04-16T15:15:57.338Z,11.47
2018-04-16T15:17:58.906Z,8.20
2018-04-16T15:20:01.306Z,10.80
2018-04-16T15:22:04.081Z,11.73
2018-04-16T15:24:05.167Z,10.53
2018-04-16T15:26:06.236Z,17.30
2018-04-16T15:28:07.382Z,14.90
2018-04-16T15:30:08.424Z,15.83
2018-04-16T15:32:09.404Z,15.80
2018-04-16T15:36:36.579Z,16.83
2018-04-16T15:38:37.670Z,20.60
2018-04-16T15:40:38.768Z,19.23
2018-04-16T15:42:40.184Z,19.87
2018-04-16T15:44:42.196Z,21.07
2018-04-16T15:46:43.261Z,22.13
2018-04-16T15:48:44.471Z,20.50
2018-04-16T15:53:30.850Z,14.83
2018-04-16T15:55:31.883Z,16.83
2018-04-16T15:57:32.985Z,17.77
2018-04-16T15:59:37.449Z,16.77
2018-04-16T16:01:47.093Z,15.13
2018-04-16T16:03:52.791Z,15.57
2018-04-16T16:05:57.358Z,21.03
2018-04-16T16:08:01.788Z,19.37
2018-04-16T16:10:04.374Z,15.43
2018-04-16T16:12:05.662Z,21.30
2018-04-16T16:14:06.696Z,19.43
2018-04-16T16:16:07.862Z,24.13
2018-04-16T16:18:08.981Z,23.00
2018-04-16T16:20:17.288Z,20.23
2018-04-16T16:22:19.415Z,20.03
2018-04-16T16:24:30.101Z,16.93
2018-04-16T16:26:31.381Z,19.70
2018-04-16T16:28:32.453Z,20.98
2018-04-16T16:30:33.489Z,21.90
2018-04-16T16:34:47.864Z,21.33
2018-04-16T16:37:01.259Z,21.83
2018-04-16T16:39:02.334Z,17.10
2018-04-16T16:41:03.378Z,17.23
2018-04-16T16:47:25.180Z,17.07
2018-04-16T16:49:30.195Z,19.93
2018-04-16T16:51:31.311Z,16.47
2018-04-16T16:53:32.361Z,13.63
2018-04-16T16:55:33.477Z,16.40
2018-04-16T16:57:47.402Z,15.60
2018-04-16T16:59:57.939Z,15.60
2018-04-16T17:01:59.186Z,15.87
2018-04-16T17:04:27.946Z,14.68
2018-04-16T17:06:32.061Z,13.90
2018-04-16T17:08:33.316Z,14.00
2018-04-16T17:15:01.280Z,11.70
2018-04-16T17:17:02.345Z,13.50
2018-04-16T17:19:03.377Z,11.87
2018-04-16T17:23:17.728Z,17.33
2018-04-16T17:25:30.759Z,15.40
2018-04-16T17:27:32.022Z,15.40
2018-04-16T17:29:33.343Z,14.23
2018-04-16T17:34:02.599Z,10.53
2018-04-16T17:36:03.655Z,16.93
2018-04-16T17:38:17.121Z,13.70
2018-04-16T17:42:47.589Z,10.87
2018-04-16T17:45:02.409Z,17.37
2018-04-16T17:47:03.550Z,12.63
2018-04-16T19:23:50.219Z,23.70
2018-04-16T19:25:51.193Z,18.73
2018-04-16T19:27:58.186Z,19.27
2018-04-16T19:29:59.148Z,23.77
2018-04-16T19:32:00.096Z,17.70
2018-04-16T19:34:07.099Z,16.87
2018-04-16T19:36:08.785Z,18.60
2018-04-16T19:38:09.717Z,20.10
2018-04-16T19:40:10.656Z,26.80
2018-04-16T19:42:18.450Z,24.63
2018-04-16T19:44:21.434Z,25.47
2018-04-16T19:46:24.247Z,25.63
2018-04-16T19:51:05.593Z,29.67
2018-04-16T19:53:06.608Z,34.80
2018-04-16T19:55:08.308Z,29.00
2018-04-16T19:57:15.438Z,32.40
2018-04-16T19:59:16.416Z,35.97
2018-04-16T20:01:17.401Z,40.93
2018-04-16T20:03:24.547Z,34.83
2018-04-16T20:05:26.289Z,32.40
2018-04-16T20:07:27.284Z,38.13
2018-04-16T20:09:29.054Z,36.50
2018-04-16T20:11:30.106Z,35.30
2018-04-16T20:13:31.126Z,44.97
2018-04-16T20:15:32.086Z,36.23
2018-04-16T20:17:33.106Z,41.37
2018-04-16T20:19:34.825Z,42.20
2018-04-16T20:21:35.754Z,41.90
2018-04-16T20:23:36.780Z,40.57
2018-04-16T20:25:37.811Z,44.40
2018-04-16T20:27:38.851Z,42.00
2018-04-16T20:29:39.818Z,40.97
2018-04-16T20:31:41.576Z,39.37
2018-04-16T20:33:43.295Z,44.63
2018-04-16T20:35:44.336Z,43.77
2018-04-16T20:37:45.436Z,43.30
2018-04-16T20:39:47.229Z,44.27
2018-04-16T20:41:48.225Z,46.17
2018-04-16T20:43:49.254Z,40.70
2018-04-16T20:45:50.260Z,44.13
2018-04-16T20:47:51.229Z,46.27
2018-04-16T20:49:52.282Z,42.00
2018-04-16T20:51:53.285Z,44.10
2018-04-16T20:53:54.977Z,43.10
2018-04-16T20:55:56.682Z,44.90
2018-04-16T20:57:57.649Z,49.00
2018-04-16T20:59:59.397Z,46.30
2018-04-16T21:02:00.466Z,48.47
2018-04-16T21:04:02.259Z,47.80
2018-04-16T21:06:03.226Z,40.17
2018-04-16T21:08:04.256Z,51.63
2018-04-16T21:10:05.444Z,45.23
2018-04-16T21:12:06.507Z,41.60
2018-04-16T21:14:07.477Z,47.13
2018-04-16T21:16:09.272Z,44.50
2018-04-16T21:18:10.228Z,44.03
2018-04-16T21:20:11.372Z,49.93
2018-04-16T21:22:12.466Z,50.20
2018-04-16T21:24:14.186Z,45.83
2018-04-16T21:26:15.178Z,47.20
2018-04-16T21:28:17.191Z,50.37
2018-04-16T21:30:18.897Z,49.13
2018-04-16T21:32:19.942Z,46.30
2018-04-16T21:34:20.947Z,49.83
2018-04-16T21:36:21.896Z,45.17
2018-04-16T21:38:22.890Z,47.03
2018-04-16T21:40:24.209Z,47.87
2018-04-16T21:42:25.153Z,46.83
2018-04-16T21:44:26.115Z,41.60
2018-04-16T21:46:27.098Z,50.77
2018-04-16T21:48:28.818Z,43.23
2018-04-16T21:50:29.853Z,44.80
2018-04-16T21:52:30.816Z,49.40
2018-04-16T21:54:31.789Z,50.77
2018-04-16T21:56:32.717Z,47.30
2018-04-16T21:58:33.679Z,37.63
2018-04-16T22:00:34.646Z,37.37
2018-04-16T22:02:36.438Z,45.67
2018-04-16T22:04:37.377Z,50.50
2018-04-16T22:06:38.446Z,39.90
2018-04-16T22:08:39.404Z,48.40
2018-04-16T22:10:40.389Z,42.95
2018-04-16T22:12:41.441Z,40.20
2018-04-16T22:14:43.174Z,41.50
2018-04-16T22:16:44.139Z,46.93
2018-04-16T22:18:45.115Z,46.57
2018-04-16T22:20:46.101Z,50.13
2018-04-16T22:22:47.107Z,47.63
2018-04-16T22:24:48.093Z,41.57
2018-04-16T22:26:49.067Z,47.63
2018-04-16T22:28:50.009Z,49.67
2018-04-16T22:30:50.997Z,50.63
2018-04-16T22:32:52.033Z,53.17
2018-04-16T22:34:53.852Z,57.17
2018-04-16T22:36:54.782Z,48.37
2018-04-16T22:38:55.804Z,56.60
2018-04-16T22:40:56.814Z,49.13
2018-04-16T22:42:57.781Z,56.23
2018-04-16T22:44:58.758Z,59.77
2018-04-16T22:46:59.709Z,58.93
2018-04-16T22:49:00.763Z,50.17
2018-04-16T22:51:01.788Z,60.13
2018-04-16T22:53:02.846Z,49.97
2018-04-16T22:55:03.862Z,60.83
2018-04-16T22:57:05.579Z,53.30
2018-04-16T22:59:06.574Z,54.57
2018-04-16T23:01:08.355Z,53.73
2018-04-16T23:03:09.291Z,36.30
2018-04-16T23:05:10.298Z,37.67
2018-04-16T23:07:11.257Z,38.87
2018-04-16T23:09:12.201Z,38.07
2018-04-16T23:11:14.004Z,45.20
2018-04-16T23:13:15.505Z,32.83
2018-04-16T23:15:16.496Z,27.87
2018-04-16T23:17:17.531Z,133.10
2018-04-16T23:19:19.277Z,22.00
2018-04-16T23:21:20.264Z,23.87
2018-04-16T23:23:21.258Z,21.97
2018-04-16T23:25:22.233Z,151.07
2018-04-16T23:27:23.938Z,34.03
2018-04-16T23:29:24.881Z,41.93
2018-04-16T23:31:25.859Z,48.20
2018-04-16T23:33:26.875Z,46.40
2018-04-16T23:35:27.925Z,51.80
2018-04-16T23:37:28.874Z,43.17
2018-04-16T23:39:29.881Z,45.90
2018-04-16T23:41:31.573Z,42.37
2018-04-16T23:43:32.565Z,43.80
2018-04-16T23:45:33.550Z,34.80
2018-04-16T23:47:34.590Z,47.00
2018-04-16T23:49:36.364Z,33.47
2018-04-16T23:51:37.468Z,20.13
2018-04-16T23:53:38.427Z,17.87
2018-04-16T23:55:39.413Z,20.67
2018-04-16T23:57:40.360Z,27.73
2018-04-16T23:59:41.474Z,30.40
